createdAt,value
2023-02-18T00:00:37.386Z,98418.13
2023-02-18T00:05:39.168Z,98408.56
2023-02-18T00:10:42.191Z,98410.84
2023-02-18T00:16:05.631Z,98411.66
2023-02-18T00:21:08.870Z,98414.91
2023-02-18T00:26:19.216Z,98419.13
2023-02-18T00:31:41.072Z,98416.38
2023-02-18T00:36:43.462Z,98417.34
2023-02-18T00:41:46.419Z,98415.72
2023-02-18T00:46:53.708Z,98417.50
2023-02-18T00:51:58.688Z,98422.69
2023-02-18T00:57:00.560Z,98411.50
2023-02-18T01:02:07.921Z,98419.28
2023-02-18T01:07:10.491Z,98420.25
2023-02-18T01:12:12.500Z,98422.19
2023-02-18T01:17:14.428Z,98424.94
2023-02-18T01:22:16.221Z,98436.44
2023-02-18T01:27:18.036Z,98428.00
2023-02-18T01:32:19.962Z,98430.75
2023-02-18T01:37:22.216Z,98421.50
2023-02-18T01:42:29.526Z,98424.41
2023-02-18T01:47:34.527Z,98416.13
2023-02-18T01:52:36.437Z,98421.75
2023-02-18T01:57:39.018Z,98422.88
2023-02-18T02:02:47.051Z,98404.38
2023-02-18T02:07:51.518Z,98417.19
2023-02-18T02:13:18.758Z,98418.59
2023-02-18T02:18:20.681Z,98429.44
2023-02-18T02:23:38.684Z,98429.44
2023-02-18T02:29:12.778Z,98415.81
2023-02-18T02:34:23.611Z,98418.56
2023-02-18T02:39:38.180Z,98422.94
2023-02-18T02:44:51.272Z,98423.75
2023-02-18T02:50:10.549Z,98424.84
2023-02-18T02:55:14.213Z,98437.81
2023-02-18T03:00:34.664Z,98431.16
2023-02-18T03:05:54.669Z,98427.59
2023-02-18T03:11:06.999Z,98425.16
2023-02-18T03:16:33.837Z,98425.31
2023-02-18T03:21:50.864Z,98425.47
2023-02-18T03:27:07.672Z,98432.56
2023-02-18T03:32:13.216Z,98419.78
2023-02-18T03:37:16.555Z,98422.50
2023-02-18T03:42:19.148Z,98423.31
2023-02-18T03:47:25.194Z,98420.75
2023-02-18T03:52:27.110Z,98412.16
2023-02-18T03:57:47.271Z,98418.28
2023-02-18T04:02:53.282Z,98410.84
2023-02-18T04:07:55.397Z,98422.81
2023-02-18T04:12:57.334Z,98426.38
2023-02-18T04:17:59.188Z,98422.16
2023-02-18T04:23:01.057Z,98431.56
2023-02-18T04:28:03.130Z,98438.50
2023-02-18T04:33:05.130Z,98425.56
2023-02-18T04:38:08.606Z,98421.34
2023-02-18T04:43:10.522Z,98423.13
2023-02-18T04:48:12.523Z,98412.09
2023-02-18T04:53:14.613Z,98404.63
2023-02-18T04:58:16.492Z,98409.81
2023-02-18T05:03:18.584Z,98408.03
2023-02-18T05:08:20.824Z,98420.16
2023-02-18T05:13:23.080Z,98415.00
2023-02-18T05:18:25.176Z,98413.38
2023-02-18T05:23:27.441Z,98402.84
2023-02-18T05:28:29.813Z,98392.66
2023-02-18T05:33:31.682Z,98392.94
2023-02-18T05:38:33.825Z,98389.53
2023-02-18T05:43:55.860Z,98383.56
2023-02-18T05:49:48.156Z,98375.94
2023-02-18T05:54:49.994Z,98375.28
2023-02-18T06:06:08.464Z,98370.91
2023-02-18T06:11:10.620Z,98370.91
2023-02-18T06:16:12.591Z,98364.63
2023-02-18T06:21:26.334Z,98367.34
2023-02-18T06:26:30.778Z,98370.91
2023-02-18T06:31:45.049Z,98366.03
2023-02-18T06:36:54.914Z,98368.13
2023-02-18T06:41:56.815Z,98378.78
2023-02-18T06:46:58.692Z,98365.31
2023-02-18T06:52:02.758Z,98362.56
2023-02-18T06:57:04.748Z,98346.06
2023-02-18T07:02:08.686Z,98347.69
2023-02-18T07:07:10.709Z,98354.19
2023-02-18T07:12:12.600Z,98346.94
2023-02-18T07:17:15.169Z,98325.94
2023-02-18T07:22:17.835Z,98342.94
2023-02-18T07:27:21.275Z,98335.00
2023-02-18T07:32:23.322Z,98327.41
2023-02-18T07:37:25.404Z,98308.16
2023-02-18T07:42:27.347Z,98322.41
2023-02-18T07:48:00.369Z,98289.72
2023-02-18T07:53:02.415Z,98288.75
2023-02-18T07:58:04.307Z,98284.91
2023-02-18T08:03:06.245Z,98276.81
2023-02-18T08:08:16.707Z,98277.97
2023-02-18T08:13:20.365Z,98262.94
2023-02-18T08:18:37.358Z,98262.31
2023-02-18T08:24:04.279Z,98244.53
2023-02-18T08:29:06.186Z,98235.78
2023-02-18T08:34:09.544Z,98231.25
2023-02-18T08:39:14.469Z,98217.66
2023-02-18T08:44:16.378Z,98210.22
2023-02-18T08:49:24.371Z,98198.56
2023-02-18T08:54:26.273Z,98193.72
2023-02-18T08:59:28.405Z,98182.06
2023-02-18T09:04:31.027Z,98186.78
2023-02-18T09:09:33.233Z,98169.75
2023-02-18T09:14:35.437Z,98151.63
2023-02-18T09:19:37.230Z,98149.53
2023-02-18T09:25:04.837Z,98144.34
2023-02-18T09:30:07.849Z,98138.69
2023-02-18T09:35:10.211Z,98110.47
2023-02-18T09:40:36.364Z,98116.25
2023-02-18T09:45:39.104Z,98103.25
2023-02-18T09:50:41.097Z,98100.00
2023-02-18T09:55:46.495Z,98097.25
2023-02-18T10:07:03.939Z,98082.97
2023-02-18T10:12:20.574Z,98077.59
2023-02-18T10:17:31.135Z,98069.34
2023-02-18T10:22:33.292Z,98065.13
2023-02-18T10:27:39.472Z,98060.75
2023-02-18T10:39:02.313Z,98032.16
2023-02-18T10:44:42.826Z,98038.00
2023-02-18T10:50:25.239Z,98023.75
2023-02-18T10:55:40.058Z,97999.25
2023-02-18T11:00:51.414Z,97989.97
2023-02-18T11:06:33.102Z,97975.50
2023-02-18T11:11:39.068Z,97969.78
2023-02-18T11:16:46.753Z,97965.81
2023-02-18T11:21:48.935Z,97929.88
2023-02-18T11:26:51.343Z,97911.81
2023-02-18T11:31:57.013Z,97919.19
2023-02-18T11:37:20.085Z,97910.34
2023-02-18T11:42:25.399Z,97905.59
2023-02-18T11:47:34.889Z,97899.25
2023-02-18T11:52:40.239Z,97895.13
2023-02-18T11:57:48.421Z,97896.75
2023-02-18T12:02:53.172Z,97869.69
2023-02-18T12:08:18.080Z,97890.00
2023-02-18T12:13:42.461Z,97867.97
2023-02-18T12:18:56.676Z,97866.69
2023-02-18T12:24:04.471Z,97884.59
2023-02-18T12:29:33.172Z,97861.06
2023-02-18T12:34:51.695Z,97857.13
2023-02-18T12:40:18.294Z,97853.19
2023-02-18T12:45:44.756Z,97863.56
2023-02-18T12:50:58.392Z,97875.03
2023-02-18T12:56:37.444Z,97860.22
2023-02-18T13:01:53.448Z,97855.78
2023-02-18T13:07:19.754Z,97852.47
2023-02-18T13:12:36.464Z,97858.19
2023-02-18T13:17:41.498Z,97857.72
2023-02-18T13:22:45.922Z,97848.78
2023-02-18T13:28:26.294Z,97838.50
2023-02-18T13:34:05.410Z,97838.97
2023-02-18T13:39:20.317Z,97845.94
2023-02-18T13:44:22.793Z,97834.00
2023-02-18T13:49:34.006Z,97846.41
2023-02-18T13:54:45.222Z,97846.13
2023-02-18T14:00:03.029Z,97848.91
2023-02-18T14:05:09.731Z,97858.97
2023-02-18T14:10:27.684Z,97850.56
2023-02-18T14:15:39.840Z,97870.88
2023-02-18T14:20:44.608Z,97847.84
2023-02-18T14:25:51.467Z,97856.16
2023-02-18T14:30:54.165Z,97868.84
2023-02-18T14:36:32.996Z,97852.00
2023-02-18T14:42:01.186Z,97855.56
2023-02-18T14:47:12.456Z,97866.28
2023-02-18T14:52:35.112Z,97879.63
2023-02-18T14:57:51.254Z,97875.59
2023-02-18T15:02:55.813Z,97898.63
2023-02-18T15:08:03.853Z,97895.56
2023-02-18T15:13:13.160Z,97894.63
2023-02-18T15:18:36.443Z,97915.03
2023-02-18T15:23:41.152Z,97906.63
2023-02-18T15:29:00.784Z,97906.78
2023-02-18T15:34:04.460Z,97904.19
2023-02-18T15:39:06.606Z,97910.81
2023-02-18T15:44:09.003Z,97914.06
2023-02-18T15:49:15.194Z,97939.34
2023-02-18T15:54:26.380Z,97942.25
2023-02-18T15:59:36.700Z,97904.63
2023-02-18T16:04:41.458Z,97907.34
2023-02-18T16:09:50.246Z,97912.97
2023-02-18T16:14:55.125Z,97918.63
2023-02-18T16:20:05.238Z,97917.47
2023-02-18T16:25:13.621Z,97928.50
2023-02-18T16:30:18.092Z,97934.31
2023-02-18T16:35:22.947Z,97960.44
2023-02-18T16:40:40.752Z,97970.16
2023-02-18T16:45:48.285Z,97970.34
2023-02-18T16:51:01.168Z,97977.31
2023-02-18T16:56:03.232Z,97971.31
2023-02-18T17:01:05.550Z,97969.53
2023-02-18T17:06:07.915Z,97979.91
2023-02-18T17:12:07.833Z,97979.56
2023-02-18T17:17:31.202Z,97998.88
2023-02-18T17:22:35.645Z,98005.22
2023-02-18T17:27:37.848Z,98013.50
2023-02-18T17:32:40.634Z,98019.38
2023-02-18T17:37:42.825Z,98021.66
2023-02-18T17:48:03.385Z,98032.06
2023-02-18T17:53:05.638Z,98035.75
2023-02-18T17:58:07.549Z,98038.50
2023-02-18T18:03:11.882Z,98055.56
2023-02-18T18:08:14.552Z,98064.13
2023-02-18T18:13:23.896Z,98068.34
2023-02-18T18:18:27.781Z,98073.22
2023-02-18T18:23:32.997Z,98073.84
2023-02-18T18:28:37.534Z,98083.91
2023-02-18T18:33:42.095Z,98095.88
2023-02-18T18:38:44.093Z,98103.84
2023-02-18T18:43:46.839Z,98112.91
2023-02-18T18:48:49.684Z,98106.28
2023-02-18T18:53:51.683Z,98113.25
2023-02-18T18:59:16.570Z,98113.41
2023-02-18T19:04:19.303Z,98120.88
2023-02-18T19:09:21.575Z,98131.06
2023-02-18T19:14:23.496Z,98115.34
2023-02-18T19:19:28.121Z,98147.28
2023-02-18T19:24:33.265Z,98120.53
2023-02-18T19:29:36.229Z,98127.66
2023-02-18T19:39:53.749Z,98129.63
2023-02-18T19:45:04.648Z,98127.31
2023-02-18T19:55:23.940Z,98139.47
2023-02-18T20:00:25.882Z,98146.59
2023-02-18T20:05:27.852Z,98146.75
2023-02-18T20:10:29.740Z,98139.97
2023-02-18T20:15:31.594Z,98155.50
2023-02-18T20:21:05.989Z,98160.84
2023-02-18T20:26:09.748Z,98162.16
2023-02-18T20:31:15.545Z,98159.06
2023-02-18T20:37:07.910Z,98160.03
2023-02-18T20:42:16.377Z,98172.03
2023-02-18T20:47:19.234Z,98166.19
2023-02-18T20:52:21.181Z,98175.09
2023-02-18T20:57:23.290Z,98180.59
2023-02-18T21:02:25.401Z,98165.38
2023-02-18T21:07:27.407Z,98159.38
2023-02-18T21:12:29.654Z,98154.19
2023-02-18T21:17:41.533Z,98157.75
2023-02-18T21:22:43.624Z,98164.56
2023-02-18T21:27:48.487Z,98164.25
2023-02-18T21:32:54.246Z,98175.25
2023-02-18T21:37:56.937Z,98159.72
2023-02-18T21:42:59.533Z,98175.09
2023-02-18T21:48:21.455Z,98172.34
2023-02-18T21:53:23.385Z,98177.38
2023-02-18T21:58:25.240Z,98162.63
2023-02-18T22:03:33.122Z,98165.22
2023-02-18T22:14:23.601Z,98161.97
2023-02-18T22:19:26.272Z,98161.34
2023-02-18T22:24:29.536Z,98171.53
2023-02-18T22:29:37.183Z,98175.91
2023-02-18T22:34:42.292Z,98159.72
2023-02-18T22:39:44.214Z,98182.56
2023-02-18T22:44:46.114Z,98180.13
2023-02-18T22:49:52.539Z,98171.53
2023-02-18T22:54:57.664Z,98178.50
2023-02-18T23:00:02.621Z,98167.31
2023-02-18T23:05:04.928Z,98169.91
2023-02-18T23:10:07.327Z,98161.97
2023-02-18T23:15:09.558Z,98161.16
2023-02-18T23:20:11.370Z,98166.19
2023-02-18T23:25:32.466Z,98171.06
2023-02-18T23:30:34.555Z,98169.28
2023-02-18T23:35:44.978Z,98167.50
2023-02-18T23:40:51.170Z,98170.88
2023-02-18T23:45:59.446Z,98157.94
2023-02-18T23:51:02.014Z,98156.16
2023-02-18T23:56:11.801Z,98152.91
